createdAt,value
2018-04-16T00:01:11.534Z,97.00
2018-04-16T00:03:39.069Z,97.30
2018-04-16T00:06:06.630Z,97.60
2018-04-16T00:08:34.179Z,97.50
2018-04-16T00:11:02.512Z,97.70
2018-04-16T00:13:30.811Z,97.80
2018-04-16T00:15:58.400Z,97.80
2018-04-16T00:18:25.963Z,97.80
2018-04-16T00:20:53.525Z,98.00
2018-04-16T00:23:21.069Z,98.10
2018-04-16T00:25:49.389Z,98.10
2018-04-16T00:28:16.936Z,98.10
2018-04-16T00:30:45.530Z,98.30
2018-04-16T00:33:18.846Z,98.70
2018-04-16T00:35:52.117Z,98.60
2018-04-16T00:38:25.307Z,98.70
2018-04-16T00:40:58.508Z,98.90
2018-04-16T00:43:31.739Z,99.00
2018-04-16T00:46:05.784Z,99.30
2018-04-16T00:48:38.958Z,99.30
2018-04-16T00:51:13.031Z,99.30
2018-04-16T00:53:58.266Z,99.30
2018-04-16T00:56:31.476Z,99.80
2018-04-16T00:59:04.627Z,99.90
2018-04-16T01:01:38.708Z,99.90
2018-04-16T01:04:11.920Z,99.90
2018-04-16T01:06:45.840Z,99.90
2018-04-16T01:09:19.760Z,99.90
2018-04-16T01:11:52.945Z,99.90
2018-04-16T01:14:26.117Z,99.90
2018-04-16T01:17:00.063Z,99.90
2018-04-16T01:19:33.324Z,99.90
2018-04-16T01:22:07.341Z,99.90
2018-04-16T01:24:41.315Z,99.90
2018-04-16T01:27:14.787Z,99.90
2018-04-16T01:29:48.088Z,99.90
2018-04-16T01:32:21.500Z,99.90
2018-04-16T01:34:54.619Z,99.90
2018-04-16T01:37:28.640Z,99.90
2018-04-16T01:40:03.685Z,99.90
2018-04-16T01:42:36.988Z,99.90
2018-04-16T01:45:10.112Z,99.90
2018-04-16T01:47:43.296Z,99.90
2018-04-16T01:50:16.548Z,99.90
2018-04-16T01:52:50.616Z,99.90
2018-04-16T01:55:23.783Z,99.90
2018-04-16T01:57:56.999Z,99.90
2018-04-16T02:00:30.289Z,99.90
2018-04-16T02:03:03.500Z,99.90
2018-04-16T02:05:36.675Z,99.90
2018-04-16T02:08:09.842Z,99.90
2018-04-16T02:10:42.990Z,99.90
2018-04-16T02:13:16.968Z,99.90
2018-04-16T02:15:50.255Z,99.90
2018-04-16T02:18:23.595Z,99.90
2018-04-16T02:20:57.592Z,99.90
2018-04-16T02:23:30.803Z,99.90
2018-04-16T02:26:04.816Z,99.90
2018-04-16T02:28:38.817Z,99.90
2018-04-16T02:31:12.909Z,99.90
2018-04-16T02:33:46.120Z,99.90
2018-04-16T02:36:20.080Z,99.90
2018-04-16T02:38:53.360Z,99.90
2018-04-16T02:41:26.531Z,99.90
2018-04-16T02:43:59.740Z,99.90
2018-04-16T02:46:32.900Z,99.90
2018-04-16T02:49:06.965Z,99.90
2018-04-16T02:51:40.232Z,99.90
2018-04-16T02:54:13.444Z,99.90
2018-04-16T02:56:46.571Z,99.90
2018-04-16T02:59:19.840Z,99.90
2018-04-16T03:01:53.170Z,99.90
2018-04-16T03:04:26.512Z,99.90
2018-04-16T03:06:59.758Z,99.90
2018-04-16T03:09:33.755Z,99.90
2018-04-16T03:12:06.878Z,99.90
2018-04-16T03:14:40.254Z,99.90
2018-04-16T03:17:14.256Z,99.90
2018-04-16T03:19:47.597Z,99.90
2018-04-16T03:22:20.855Z,99.90
2018-04-16T03:24:54.791Z,99.90
2018-04-16T03:27:27.994Z,99.90
2018-04-16T03:30:01.227Z,99.90
2018-04-16T03:32:34.619Z,99.90
2018-04-16T03:35:07.762Z,99.90
2018-04-16T03:37:40.936Z,99.90
2018-04-16T03:40:15.034Z,99.90
2018-04-16T03:42:48.291Z,99.90
2018-04-16T03:45:21.466Z,99.90
2018-04-16T03:47:54.722Z,99.90
2018-04-16T03:50:28.763Z,99.90
2018-04-16T03:53:01.964Z,99.90
2018-04-16T03:58:33.741Z,99.90
2018-04-16T04:01:01.321Z,99.90
2018-04-16T04:03:28.880Z,99.90
2018-04-16T04:05:56.461Z,99.90
2018-04-16T04:08:24.780Z,99.90
2018-04-16T04:10:52.353Z,99.90
2018-04-16T04:13:19.903Z,99.90
2018-04-16T04:15:47.482Z,99.90
2018-04-16T04:18:15.022Z,99.90
2018-04-16T04:20:42.624Z,99.90
2018-04-16T04:23:21.981Z,99.90
2018-04-16T04:26:01.465Z,99.90
2018-04-16T04:28:40.918Z,99.90
2018-04-16T04:31:08.489Z,99.90
2018-04-16T04:33:36.042Z,99.90
2018-04-16T04:36:03.617Z,99.90
2018-04-16T04:38:31.165Z,99.90
2018-04-16T04:40:58.735Z,99.90
2018-04-16T04:43:26.296Z,99.90
2018-04-16T04:45:53.876Z,99.90
2018-04-16T04:48:22.194Z,99.90
2018-04-16T04:50:49.768Z,99.90
2018-04-16T04:53:17.324Z,99.90
2018-04-16T04:55:44.893Z,99.90
2018-04-16T04:58:12.443Z,99.90
2018-04-16T05:00:40.015Z,99.90
2018-04-16T05:03:07.570Z,99.90
2018-04-16T05:05:35.149Z,99.90
2018-04-16T05:08:02.717Z,99.90
2018-04-16T05:10:30.372Z,99.90
2018-04-16T05:12:58.801Z,99.90
2018-04-16T05:15:26.352Z,99.90
2018-04-16T05:17:53.923Z,99.90
2018-04-16T05:20:21.489Z,99.90
2018-04-16T05:22:49.070Z,99.90
2018-04-16T05:25:16.618Z,99.90
2018-04-16T05:27:44.177Z,99.90
2018-04-16T05:30:11.730Z,99.90
2018-04-16T05:32:39.304Z,99.90
2018-04-16T05:35:06.853Z,99.90
2018-04-16T05:37:34.440Z,99.90
2018-04-16T05:40:02.077Z,99.90
2018-04-16T05:42:29.659Z,99.90
2018-04-16T05:44:57.244Z,99.90
2018-04-16T05:47:24.823Z,99.90
2018-04-16T05:49:53.148Z,99.90
2018-04-16T05:52:20.714Z,99.90
2018-04-16T05:54:48.271Z,99.90
2018-04-16T05:57:15.842Z,99.90
2018-04-16T05:59:43.401Z,99.90
2018-04-16T06:02:10.985Z,99.90
2018-04-16T06:04:39.329Z,99.90
2018-04-16T06:07:06.883Z,99.90
2018-04-16T06:09:34.441Z,99.90
2018-04-16T06:12:02.004Z,99.90
2018-04-16T06:14:29.579Z,99.90
2018-04-16T06:16:57.126Z,99.90
2018-04-16T06:19:24.714Z,99.90
2018-04-16T06:21:52.265Z,99.90
2018-04-16T06:24:20.601Z,99.90
2018-04-16T06:26:48.149Z,99.90
2018-04-16T06:29:15.721Z,99.90
2018-04-16T06:31:43.256Z,99.90
2018-04-16T06:34:11.596Z,99.90
2018-04-16T06:36:39.145Z,99.90
2018-04-16T06:39:06.715Z,99.90
2018-04-16T06:41:34.281Z,99.90
2018-04-16T06:44:01.871Z,99.90
2018-04-16T06:46:29.447Z,99.90
2018-04-16T06:48:57.030Z,99.90
2018-04-16T06:51:24.587Z,99.90
2018-04-16T06:53:52.158Z,99.90
2018-04-16T06:56:19.699Z,99.90
2018-04-16T06:58:47.268Z,99.90
2018-04-16T07:01:14.865Z,99.90
2018-04-16T07:03:43.250Z,99.90
2018-04-16T07:06:11.576Z,99.90
2018-04-16T07:08:39.140Z,99.90
2018-04-16T07:11:06.707Z,99.90
2018-04-16T07:13:35.042Z,99.90
2018-04-16T07:16:02.667Z,99.90
2018-04-16T07:18:30.970Z,99.90
2018-04-16T07:20:58.572Z,99.90
2018-04-16T07:23:26.132Z,99.90
2018-04-16T07:25:53.702Z,99.90
2018-04-16T07:28:21.251Z,99.90
2018-04-16T07:30:48.825Z,99.90
2018-04-16T07:33:16.379Z,99.90
2018-04-16T07:35:43.951Z,99.90
2018-04-16T07:38:11.496Z,99.90
2018-04-16T07:40:39.064Z,99.90
2018-04-16T07:43:06.619Z,99.90
2018-04-16T07:45:34.195Z,99.90
2018-04-16T07:48:01.743Z,99.90
2018-04-16T07:50:29.306Z,99.90
2018-04-16T07:52:56.848Z,99.90
2018-04-16T07:55:24.421Z,99.80
2018-04-16T07:57:51.955Z,99.40
2018-04-16T08:00:19.529Z,99.20
2018-04-16T08:02:47.080Z,99.00
2018-04-16T08:05:14.651Z,99.00
2018-04-16T08:07:42.193Z,99.40
2018-04-16T08:10:09.748Z,99.00
2018-04-16T08:12:37.321Z,99.40
2018-04-16T08:15:04.873Z,99.40
2018-04-16T08:17:32.443Z,99.90
2018-04-16T08:19:59.997Z,99.80
2018-04-16T08:22:27.557Z,99.60
2018-04-16T08:24:55.104Z,99.40
2018-04-16T08:27:22.672Z,99.10
2018-04-16T08:29:50.250Z,99.20
2018-04-16T08:32:17.815Z,99.20
2018-04-16T08:34:45.432Z,98.80
2018-04-16T08:37:13.113Z,99.00
2018-04-16T08:39:40.688Z,99.30
2018-04-16T08:42:08.263Z,99.10
2018-04-16T08:44:35.795Z,99.20
2018-04-16T08:47:03.365Z,98.90
2018-04-16T08:49:30.910Z,98.70
2018-04-16T08:51:58.487Z,98.10
2018-04-16T08:54:26.035Z,97.50
2018-04-16T08:56:53.611Z,97.10
2018-04-16T08:59:21.145Z,97.00
2018-04-16T09:01:48.714Z,96.40
2018-04-16T09:04:16.247Z,96.10
2018-04-16T09:06:44.588Z,95.70
2018-04-16T09:09:12.135Z,95.70
2018-04-16T09:11:39.708Z,94.70
2018-04-16T09:14:07.254Z,94.30
2018-04-16T09:16:34.803Z,93.30
2018-04-16T09:19:02.361Z,92.80
2018-04-16T09:21:29.908Z,91.60
2018-04-16T09:23:57.491Z,91.00
2018-04-16T09:26:25.041Z,90.50
2018-04-16T09:28:52.619Z,90.40
2018-04-16T09:31:20.155Z,91.30
2018-04-16T09:33:47.735Z,91.10
2018-04-16T09:36:15.287Z,90.50
2018-04-16T09:38:42.868Z,90.30
2018-04-16T09:41:10.409Z,89.30
2018-04-16T09:43:37.981Z,88.40
2018-04-16T09:46:05.527Z,87.30
2018-04-16T09:48:33.082Z,88.00
2018-04-16T09:51:00.625Z,87.90
2018-04-16T09:53:28.192Z,86.10
2018-04-16T09:55:55.758Z,85.80
2018-04-16T09:58:23.331Z,81.00
2018-04-16T10:00:50.894Z,80.30
2018-04-16T10:03:18.467Z,79.40
2018-04-16T10:05:46.017Z,79.20
2018-04-16T10:08:13.590Z,79.70
2018-04-16T10:10:41.136Z,76.50
2018-04-16T10:13:08.708Z,72.60
2018-04-16T10:15:36.264Z,66.50
2018-04-16T10:18:03.879Z,66.00
2018-04-16T10:20:31.431Z,66.90
2018-04-16T10:22:58.974Z,66.20
2018-04-16T10:25:26.538Z,63.60
2018-04-16T10:27:54.073Z,65.00
2018-04-16T10:30:22.393Z,63.00
2018-04-16T10:32:49.920Z,63.00
2018-04-16T10:35:18.245Z,56.90
2018-04-16T10:37:45.783Z,56.80
2018-04-16T10:40:13.703Z,57.20
2018-04-16T10:42:41.255Z,58.20
2018-04-16T10:45:08.840Z,58.40
2018-04-16T10:47:37.137Z,59.20
2018-04-16T10:50:04.720Z,59.20
2018-04-16T10:52:32.288Z,58.70
2018-04-16T10:54:59.909Z,59.20
2018-04-16T10:57:27.541Z,59.60
2018-04-16T10:59:55.892Z,59.70
2018-04-16T11:02:23.443Z,59.70
2018-04-16T11:04:51.001Z,59.80
2018-04-16T11:07:18.542Z,58.80
2018-04-16T11:09:46.108Z,58.70
2018-04-16T11:12:13.651Z,59.60
2018-04-16T11:14:41.223Z,58.90
2018-04-16T11:17:08.862Z,59.90
2018-04-16T11:19:36.439Z,59.40
2018-04-16T11:22:03.996Z,60.30
2018-04-16T11:24:32.318Z,58.70
2018-04-16T11:26:59.857Z,58.60
2018-04-16T11:29:27.415Z,58.40
2018-04-16T11:31:54.970Z,58.70
2018-04-16T11:34:22.544Z,57.80
2018-04-16T11:36:50.094Z,58.30
2018-04-16T11:39:17.651Z,56.90
2018-04-16T11:41:45.245Z,56.30
2018-04-16T11:44:12.794Z,54.40
2018-04-16T11:46:40.358Z,54.90
2018-04-16T11:49:07.917Z,55.10
2018-04-16T11:51:35.487Z,55.60
2018-04-16T11:54:03.045Z,55.40
2018-04-16T11:56:30.615Z,54.00
2018-04-16T11:58:58.153Z,53.50
2018-04-16T12:01:25.724Z,53.90
2018-04-16T12:03:53.348Z,53.80
2018-04-16T12:06:21.737Z,52.10
2018-04-16T12:08:49.287Z,52.20
2018-04-16T12:11:16.862Z,51.70
2018-04-16T12:13:44.408Z,51.70
2018-04-16T12:16:11.981Z,50.70
2018-04-16T12:18:39.521Z,51.20
2018-04-16T12:21:07.111Z,51.40
2018-04-16T12:23:34.656Z,51.90
2018-04-16T12:26:02.233Z,50.40
2018-04-16T12:28:29.782Z,52.20
2018-04-16T12:30:58.113Z,52.50
2018-04-16T12:33:25.661Z,52.50
2018-04-16T12:35:53.983Z,52.80
2018-04-16T12:38:21.528Z,52.80
2018-04-16T12:40:49.100Z,53.00
2018-04-16T12:43:16.638Z,52.40
2018-04-16T12:45:44.207Z,52.50
2018-04-16T12:48:11.767Z,53.00
2018-04-16T12:50:39.331Z,52.90
2018-04-16T12:53:06.884Z,52.50
2018-04-16T12:55:34.445Z,55.30
2018-04-16T12:58:02.007Z,55.90
2018-04-16T13:00:29.539Z,54.70
2018-04-16T13:02:57.100Z,53.00
2018-04-16T13:05:24.650Z,51.40
2018-04-16T13:07:53.041Z,50.90
2018-04-16T13:10:20.552Z,50.80
2018-04-16T13:12:48.114Z,49.10
2018-04-16T13:15:15.662Z,54.20
2018-04-16T13:17:43.234Z,55.50
2018-04-16T13:20:10.827Z,57.60
2018-04-16T13:22:38.383Z,58.40
2018-04-16T13:25:06.703Z,59.40
2018-04-16T13:27:34.258Z,59.40
2018-04-16T13:30:01.909Z,59.80
2018-04-16T13:32:29.505Z,59.90
2018-04-16T13:34:57.047Z,59.70
2018-04-16T13:37:24.615Z,60.00
2018-04-16T13:39:52.151Z,60.40
2018-04-16T13:42:19.706Z,61.20
2018-04-16T13:44:47.255Z,61.40
2018-04-16T13:47:14.831Z,61.40
2018-04-16T13:49:42.370Z,61.90
2018-04-16T13:52:09.932Z,61.10
2018-04-16T13:54:37.475Z,61.50
2018-04-16T13:57:05.806Z,62.60
2018-04-16T13:59:33.348Z,62.60
2018-04-16T14:02:00.891Z,62.20
2018-04-16T14:04:28.471Z,63.60
2018-04-16T14:06:56.025Z,63.40
2018-04-16T14:09:23.587Z,63.20
2018-04-16T14:11:51.137Z,63.30
2018-04-16T14:14:18.708Z,62.70
2018-04-16T14:16:46.256Z,63.20
2018-04-16T14:19:13.819Z,63.00
2018-04-16T14:21:41.360Z,63.10
2018-04-16T14:24:08.934Z,63.40
2018-04-16T14:26:36.515Z,62.60
2018-04-16T14:29:04.085Z,61.30
2018-04-16T14:31:31.641Z,61.30
2018-04-16T14:33:59.206Z,60.30
2018-04-16T14:36:26.753Z,61.20
2018-04-16T14:38:54.355Z,60.80
2018-04-16T14:41:22.671Z,61.10
2018-04-16T14:43:50.705Z,61.10
2018-04-16T14:46:19.024Z,59.80
2018-04-16T14:48:46.553Z,59.70
2018-04-16T14:51:14.893Z,60.00
2018-04-16T14:53:42.444Z,59.90
2018-04-16T14:56:10.026Z,59.70
2018-04-16T14:58:37.586Z,57.50
2018-04-16T15:01:05.155Z,57.40
2018-04-16T15:03:33.541Z,55.70
2018-04-16T15:06:01.100Z,55.60
2018-04-16T15:08:29.412Z,52.80
2018-04-16T15:10:57.003Z,52.80
2018-04-16T15:13:25.316Z,51.10
2018-04-16T15:15:53.654Z,51.70
2018-04-16T15:18:21.198Z,51.70
2018-04-16T15:20:48.768Z,50.90
2018-04-16T15:23:16.317Z,52.10
2018-04-16T15:25:43.884Z,52.60
2018-04-16T15:28:11.424Z,53.50
2018-04-16T15:30:39.072Z,53.40
2018-04-16T15:33:06.649Z,54.20
2018-04-16T15:35:34.225Z,51.40
2018-04-16T15:38:01.762Z,49.80
2018-04-16T15:40:29.341Z,52.70
2018-04-16T15:42:56.904Z,53.70
2018-04-16T15:45:25.240Z,54.30
2018-04-16T15:47:52.815Z,54.30
2018-04-16T15:50:20.416Z,53.70
2018-04-16T15:52:47.958Z,53.10
2018-04-16T15:55:16.292Z,52.40
2018-04-16T15:57:43.851Z,52.30
2018-04-16T16:00:12.192Z,52.30
2018-04-16T16:02:39.743Z,52.30
2018-04-16T16:05:07.317Z,52.90
2018-04-16T16:07:34.895Z,52.90
2018-04-16T16:10:03.204Z,54.00
2018-04-16T16:12:30.766Z,53.90
2018-04-16T16:14:58.328Z,54.00
2018-04-16T16:17:25.895Z,54.00
2018-04-16T16:19:53.442Z,54.50
2018-04-16T16:22:21.027Z,54.40
2018-04-16T16:24:48.583Z,54.80
2018-04-16T16:27:16.152Z,54.50
2018-04-16T16:29:43.708Z,54.90
2018-04-16T16:32:11.273Z,55.20
2018-04-16T16:34:38.818Z,56.10
2018-04-16T16:37:06.389Z,57.30
2018-04-16T16:39:33.927Z,57.70
2018-04-16T16:42:01.491Z,60.60
2018-04-16T16:44:29.040Z,56.90
2018-04-16T16:46:56.610Z,56.60
2018-04-16T16:49:24.239Z,56.30
2018-04-16T16:51:52.565Z,57.10
2018-04-16T16:54:20.930Z,57.50
2018-04-16T16:56:48.547Z,57.50
2018-04-16T16:59:16.127Z,59.10
2018-04-16T17:01:43.699Z,60.80
2018-04-16T17:04:11.248Z,61.50
2018-04-16T17:06:38.826Z,64.10
2018-04-16T17:09:06.385Z,65.10
2018-04-16T17:11:33.981Z,65.70
2018-04-16T17:14:01.568Z,61.50
2018-04-16T17:16:29.165Z,59.80
2018-04-16T17:18:56.787Z,59.20
2018-04-16T17:21:25.120Z,58.60
2018-04-16T17:23:52.692Z,58.60
2018-04-16T17:26:20.258Z,58.10
2018-04-16T17:28:47.957Z,58.40
2018-04-16T17:31:15.559Z,58.90
2018-04-16T17:33:43.156Z,59.00
2018-04-16T17:36:10.706Z,58.80
2018-04-16T17:38:38.270Z,59.10
2018-04-16T17:41:05.811Z,59.20
2018-04-16T17:43:33.376Z,59.60
2018-04-16T17:46:00.916Z,59.60
2018-04-16T17:48:28.478Z,62.20
2018-04-16T17:50:56.028Z,63.90
2018-04-16T17:53:23.592Z,64.90
2018-04-16T17:55:51.126Z,66.70
2018-04-16T17:58:18.699Z,70.20
2018-04-16T18:00:46.244Z,72.90
2018-04-16T18:03:13.828Z,72.90
2018-04-16T18:05:41.368Z,75.20
2018-04-16T18:08:08.941Z,77.60
2018-04-16T18:10:36.487Z,82.80
2018-04-16T18:13:04.079Z,84.20
2018-04-16T18:15:31.624Z,85.30
2018-04-16T18:17:59.166Z,86.60
2018-04-16T18:20:26.734Z,88.70
2018-04-16T18:22:54.280Z,90.50
2018-04-16T18:25:21.848Z,91.90
2018-04-16T18:27:49.386Z,92.10
2018-04-16T18:30:17.721Z,93.40
2018-04-16T18:32:46.258Z,93.30
2018-04-16T18:35:13.818Z,93.80
2018-04-16T18:37:41.388Z,94.50
2018-04-16T18:40:08.956Z,95.00
2018-04-16T18:42:36.511Z,95.60
2018-04-16T18:45:04.093Z,95.80
2018-04-16T18:47:31.645Z,96.10
2018-04-16T18:49:59.229Z,96.70
2018-04-16T18:52:26.761Z,97.10
2018-04-16T18:54:54.320Z,97.40
2018-04-16T18:57:21.862Z,97.60
2018-04-16T18:59:49.432Z,98.00
2018-04-16T19:02:16.966Z,98.20
2018-04-16T19:04:44.523Z,98.30
2018-04-16T19:07:12.095Z,98.70
2018-04-16T19:09:39.683Z,98.80
2018-04-16T19:12:07.234Z,99.10
2018-04-16T19:14:34.826Z,99.30
2018-04-16T19:17:02.372Z,99.40
2018-04-16T19:19:29.907Z,99.40
2018-04-16T19:21:57.467Z,99.70
2018-04-16T19:24:25.012Z,99.90
2018-04-16T19:26:58.153Z,99.80
2018-04-16T19:29:25.696Z,99.80
2018-04-16T19:31:53.286Z,99.90
2018-04-16T19:34:27.327Z,99.90
2018-04-16T19:36:54.906Z,99.90
2018-04-16T19:39:22.447Z,99.90
2018-04-16T19:44:55.488Z,99.90
2018-04-16T19:47:23.136Z,99.90
2018-04-16T19:49:56.438Z,99.90
2018-04-16T19:52:24.023Z,99.90
2018-04-16T19:54:51.571Z,99.90
2018-04-16T19:57:24.984Z,99.90
2018-04-16T19:59:52.547Z,99.90
2018-04-16T20:02:25.841Z,99.90
2018-04-16T20:04:53.568Z,99.90
2018-04-16T20:07:21.135Z,99.90
2018-04-16T20:09:48.671Z,99.90
2018-04-16T20:12:16.226Z,99.90
2018-04-16T20:14:43.766Z,99.90
2018-04-16T20:17:12.180Z,99.90
2018-04-16T20:19:39.717Z,99.90
2018-04-16T20:22:07.284Z,99.90
2018-04-16T20:24:34.829Z,99.90
2018-04-16T20:27:02.406Z,99.90
2018-04-16T20:29:29.941Z,99.90
2018-04-16T20:31:58.274Z,99.90
2018-04-16T20:34:25.816Z,99.90
2018-04-16T20:36:53.374Z,99.90
2018-04-16T20:39:20.919Z,99.90
2018-04-16T20:41:48.466Z,99.90
2018-04-16T20:44:16.048Z,99.90
2018-04-16T20:46:43.593Z,99.90
2018-04-16T20:49:11.158Z,99.90
2018-04-16T20:51:38.690Z,99.90
2018-04-16T20:54:07.135Z,99.90
2018-04-16T20:56:34.700Z,99.90
2018-04-16T20:59:02.283Z,99.90
2018-04-16T21:01:30.595Z,99.90
2018-04-16T21:03:58.179Z,99.90
2018-04-16T21:06:25.733Z,99.90
2018-04-16T21:08:53.307Z,99.90
2018-04-16T21:11:20.848Z,99.90
2018-04-16T21:13:48.438Z,99.90
2018-04-16T21:16:16.783Z,99.90
2018-04-16T21:18:44.360Z,99.90
2018-04-16T21:21:11.908Z,99.90
2018-04-16T21:23:39.480Z,99.90
2018-04-16T21:26:07.022Z,99.90
2018-04-16T21:28:34.596Z,99.90
2018-04-16T21:31:02.129Z,99.90
2018-04-16T21:33:29.670Z,99.90
2018-04-16T21:35:57.231Z,99.90
2018-04-16T21:38:25.538Z,99.90
2018-04-16T21:40:53.105Z,99.90
2018-04-16T21:43:20.651Z,99.90
2018-04-16T21:45:48.220Z,99.90
2018-04-16T21:48:15.764Z,99.90
2018-04-16T21:50:43.331Z,99.90
2018-04-16T21:53:10.874Z,99.90
2018-04-16T21:55:38.552Z,99.90
2018-04-16T21:58:06.095Z,99.90
2018-04-16T22:00:33.661Z,99.90
2018-04-16T22:03:01.207Z,99.90
2018-04-16T22:05:28.789Z,99.90
2018-04-16T22:07:56.330Z,99.90
2018-04-16T22:10:23.942Z,99.90
2018-04-16T22:12:51.466Z,99.90
2018-04-16T22:15:19.032Z,99.90
2018-04-16T22:17:46.580Z,99.90
2018-04-16T22:20:14.152Z,99.90
2018-04-16T22:22:41.709Z,99.90
2018-04-16T22:25:09.272Z,99.90
2018-04-16T22:27:36.806Z,99.90
2018-04-16T22:30:04.392Z,99.90
2018-04-16T22:32:31.946Z,99.90
2018-04-16T22:34:59.540Z,99.90
2018-04-16T22:37:27.089Z,99.90
2018-04-16T22:39:54.819Z,99.90
2018-04-16T22:42:22.374Z,99.90
2018-04-16T22:44:49.937Z,99.90
2018-04-16T22:47:17.513Z,99.90
2018-04-16T22:49:45.042Z,99.90
2018-04-16T22:52:12.611Z,99.90
2018-04-16T22:54:40.156Z,99.90
2018-04-16T22:57:08.492Z,99.90
2018-04-16T22:59:36.035Z,99.90
2018-04-16T23:02:03.599Z,99.90
2018-04-16T23:04:31.163Z,99.90
2018-04-16T23:06:58.732Z,99.90
2018-04-16T23:09:26.286Z,99.90
2018-04-16T23:11:53.857Z,99.90
2018-04-16T23:14:21.399Z,99.90
2018-04-16T23:16:48.958Z,99.90
2018-04-16T23:19:16.507Z,99.90
2018-04-16T23:21:44.079Z,99.90
2018-04-16T23:24:11.623Z,99.90
2018-04-16T23:26:39.190Z,99.90
2018-04-16T23:29:06.732Z,99.90
2018-04-16T23:31:34.300Z,99.90
2018-04-16T23:34:01.848Z,99.90
2018-04-16T23:36:29.428Z,99.90
2018-04-16T23:38:56.969Z,99.90
2018-04-16T23:41:24.553Z,99.90
2018-04-16T23:43:52.100Z,99.90
2018-04-16T23:46:19.663Z,99.90
2018-04-16T23:48:47.208Z,99.90
2018-04-16T23:51:14.752Z,99.90
2018-04-16T23:53:42.339Z,99.90
2018-04-16T23:56:09.927Z,99.90
2018-04-16T23:58:38.275Z,99.90
